sensor_id;sensor_type;location;lat;lon;timestamp;pressure;altitude;pressure_sealevel;temperature;humidity
15007;BME280;7599;50.748;13.142;2023-11-19T18:52:05;94940.09;;;18.00;46.91
15007;BME280;7599;50.748;13.142;2023-11-19T18:55:08;94941.28;;;17.99;47.11
15007;BME280;7599;50.748;13.142;2023-11-19T18:58:11;94947.88;;;18.01;46.97
15007;BME280;7599;50.748;13.142;2023-11-19T19:01:13;94951.38;;;18.02;46.98
15007;BME280;7599;50.748;13.142;2023-11-19T19:04:17;94942.03;;;17.96;46.90
15007;BME280;7599;50.748;13.142;2023-11-19T19:07:21;94942.41;;;17.98;46.70
15007;BME280;7599;50.748;13.142;2023-11-19T19:10:24;94938.94;;;17.94;47.10
15007;BME280;7599;50.748;13.142;2023-11-19T19:13:27;94947.09;;;18.01;46.74
15007;BME280;7599;50.748;13.142;2023-11-19T19:16:30;94939.34;;;18.06;46.68
15007;BME280;7599;50.748;13.142;2023-11-19T19:19:33;94952.94;;;18.14;46.55
15007;BME280;7599;50.748;13.142;2023-11-19T19:22:36;94959.94;;;18.18;46.87
15007;BME280;7599;50.748;13.142;2023-11-19T19:25:41;94951.41;;;18.23;46.78
15007;BME280;7599;50.748;13.142;2023-11-19T19:28:44;94948.69;;;18.27;46.63
15007;BME280;7599;50.748;13.142;2023-11-19T19:31:46;94951.81;;;18.32;46.56
15007;BME280;7599;50.748;13.142;2023-11-19T19:34:49;94951.44;;;18.38;46.60
15007;BME280;7599;50.748;13.142;2023-11-19T19:37:56;94954.94;;;18.42;46.27
15007;BME280;7599;50.748;13.142;2023-11-19T19:41:00;94958.81;;;18.44;46.63
15007;BME280;7599;50.748;13.142;2023-11-19T19:44:06;94955.69;;;18.46;46.43
15007;BME280;7599;50.748;13.142;2023-11-19T19:47:10;94949.88;;;18.47;46.43
15007;BME280;7599;50.748;13.142;2023-11-19T19:50:13;94959.59;;;18.48;46.52
15007;BME280;7599;50.748;13.142;2023-11-19T19:53:16;94954.16;;;18.48;46.07
15007;BME280;7599;50.748;13.142;2023-11-19T19:56:19;94956.09;;;18.48;46.28
15007;BME280;7599;50.748;13.142;2023-11-19T19:59:22;94956.09;;;18.48;46.38
15007;BME280;7599;50.748;13.142;2023-11-19T20:02:24;94949.47;;;18.45;45.94
15007;BME280;7599;50.748;13.142;2023-11-19T20:05:27;94948.34;;;18.43;46.43
15007;BME280;7599;50.748;13.142;2023-11-19T20:08:33;94955.72;;;18.42;46.14
15007;BME280;7599;50.748;13.142;2023-11-19T20:11:37;94962.69;;;18.40;46.65
15007;BME280;7599;50.748;13.142;2023-11-19T20:14:39;94954.94;;;18.38;46.11
15007;BME280;7599;50.748;13.142;2023-11-19T20:17:43;94955.69;;;18.28;46.60
15007;BME280;7599;50.748;13.142;2023-11-19T20:20:46;94970.47;;;18.34;46.49
15007;BME280;7599;50.748;13.142;2023-11-19T20:23:50;94960.34;;;18.27;46.58
15007;BME280;7599;50.748;13.142;2023-11-19T20:26:53;94959.56;;;18.23;46.25
15007;BME280;7599;50.748;13.142;2023-11-19T20:29:55;94970.06;;;18.25;46.77
15007;BME280;7599;50.748;13.142;2023-11-19T20:32:58;94968.50;;;18.24;46.79
15007;BME280;7599;50.748;13.142;2023-11-19T20:36:01;94960.72;;;18.22;46.90
15007;BME280;7599;50.748;13.142;2023-11-19T20:39:05;94958.00;;;18.19;46.63
15007;BME280;7599;50.748;13.142;2023-11-19T20:42:08;94961.13;;;18.17;46.94
15007;BME280;7599;50.748;13.142;2023-11-19T20:45:11;94944.78;;;18.10;46.83
15007;BME280;7599;50.748;13.142;2023-11-19T20:48:13;94937.78;;;18.05;46.53
15007;BME280;7599;50.748;13.142;2023-11-19T20:51:16;94943.63;;;18.15;46.92
15007;BME280;7599;50.748;13.142;2023-11-19T20:54:24;94945.56;;;18.11;46.90
15007;BME280;7599;50.748;13.142;2023-11-19T20:57:30;94935.47;;;18.07;46.96
15007;BME280;7599;50.748;13.142;2023-11-19T21:00:33;94949.47;;;18.17;46.82
15007;BME280;7599;50.748;13.142;2023-11-19T21:03:38;94951.00;;;18.18;46.87
15007;BME280;7599;50.748;13.142;2023-11-19T21:06:41;94941.69;;;18.19;46.81
15007;BME280;7599;50.748;13.142;2023-11-19T21:09:49;94951.03;;;18.21;46.49
15007;BME280;7599;50.748;13.142;2023-11-19T21:12:54;94945.19;;;18.23;46.61
15007;BME280;7599;50.748;13.142;2023-11-19T21:15:59;94943.66;;;18.25;46.54
15007;BME280;7599;50.748;13.142;2023-11-19T21:19:02;94944.03;;;18.27;46.85
15007;BME280;7599;50.748;13.142;2023-11-19T21:22:05;94937.44;;;18.28;46.32
15007;BME280;7599;50.748;13.142;2023-11-19T21:25:10;94932.38;;;18.30;46.34
15007;BME280;7599;50.748;13.142;2023-11-19T21:28:13;94935.47;;;18.32;46.94
15007;BME280;7599;50.748;13.142;2023-11-19T21:31:16;94928.91;;;18.33;46.22
15007;BME280;7599;50.748;13.142;2023-11-19T21:34:19;94930.03;;;18.36;46.88
15007;BME280;7599;50.748;13.142;2023-11-19T21:37:24;94936.66;;;18.35;46.75
15007;BME280;7599;50.748;13.142;2023-11-19T21:40:28;94925.78;;;18.35;46.48
15007;BME280;7599;50.748;13.142;2023-11-19T21:43:31;94930.44;;;18.27;46.44
15007;BME280;7599;50.748;13.142;2023-11-19T21:46:34;94941.31;;;18.31;46.86
15007;BME280;7599;50.748;13.142;2023-11-19T21:49:37;94936.66;;;18.24;46.55
15007;BME280;7599;50.748;13.142;2023-11-19T21:52:42;94932.78;;;18.25;46.60
15007;BME280;7599;50.748;13.142;2023-11-19T21:55:46;94927.31;;;18.18;46.95
15007;BME280;7599;50.748;13.142;2023-11-19T21:58:48;94924.59;;;18.18;47.27
15007;BME280;7599;50.748;13.142;2023-11-19T22:01:51;94915.66;;;18.14;47.29
15007;BME280;7599;50.748;13.142;2023-11-19T22:04:54;94928.47;;;18.10;47.24
15007;BME280;7599;50.748;13.142;2023-11-19T22:07:57;94921.47;;;18.05;47.31
15007;BME280;7599;50.748;13.142;2023-11-19T22:11:20;94919.91;;;18.01;46.89
15007;BME280;7599;50.748;13.142;2023-11-19T22:14:25;94915.63;;;17.96;47.20
15007;BME280;7599;50.748;13.142;2023-11-19T22:17:27;94916.78;;;17.92;47.56
15007;BME280;7599;50.748;13.142;2023-11-19T22:20:30;94919.50;;;17.88;47.56
15007;BME280;7599;50.748;13.142;2023-11-19T22:23:36;94918.34;;;17.86;47.20
15007;BME280;7599;50.748;13.142;2023-11-19T22:26:40;94918.69;;;17.80;47.46
15007;BME280;7599;50.748;13.142;2023-11-19T22:29:44;94922.19;;;17.77;47.65
15007;BME280;7599;50.748;13.142;2023-11-19T22:32:47;94909.72;;;17.69;47.58
15007;BME280;7599;50.748;13.142;2023-11-19T22:35:49;94922.13;;;17.70;47.40
15007;BME280;7599;50.748;13.142;2023-11-19T22:38:52;94929.50;;;17.66;47.60
15007;BME280;7599;50.748;13.142;2023-11-19T22:41:56;94912.00;;;17.56;47.91
15007;BME280;7599;50.748;13.142;2023-11-19T22:44:59;94902.66;;;17.47;47.79
15007;BME280;7599;50.748;13.142;2023-11-19T22:48:02;94920.16;;;17.56;48.06
15007;BME280;7599;50.748;13.142;2023-11-19T22:51:05;94924.03;;;17.52;47.79
15007;BME280;7599;50.748;13.142;2023-11-19T22:54:09;94925.56;;;17.49;47.82
15007;BME280;7599;50.748;13.142;2023-11-19T22:57:13;94924.75;;;17.45;48.24
15007;BME280;7599;50.748;13.142;2023-11-19T23:00:16;94935.25;;;17.43;47.91
15007;BME280;7599;50.748;13.142;2023-11-19T23:03:29;94925.88;;;17.30;48.24
15007;BME280;7599;50.748;13.142;2023-11-19T23:06:33;94935.97;;;17.37;48.13
15007;BME280;7599;50.748;13.142;2023-11-19T23:09:36;94953.06;;;17.33;48.09
15007;BME280;7599;50.748;13.142;2023-11-19T23:12:43;94956.53;;;17.30;48.55
15007;BME280;7599;50.748;13.142;2023-11-19T23:15:46;94951.84;;;17.27;48.37
15007;BME280;7599;50.748;13.142;2023-11-19T23:18:48;94955.34;;;17.24;48.61
15007;BME280;7599;50.748;13.142;2023-11-19T23:21:51;94939.81;;;17.21;48.52
15007;BME280;7599;50.748;13.142;2023-11-19T23:24:54;94937.47;;;17.20;48.62
15007;BME280;7599;50.748;13.142;2023-11-19T23:27:58;94929.31;;;17.16;48.30
15007;BME280;7599;50.748;13.142;2023-11-19T23:31:00;94930.44;;;17.12;48.39
15007;BME280;7599;50.748;13.142;2023-11-19T23:34:03;94934.28;;;17.11;48.81
15007;BME280;7599;50.748;13.142;2023-11-19T23:37:05;94931.19;;;17.08;48.53
15007;BME280;7599;50.748;13.142;2023-11-19T23:40:08;94936.59;;;17.05;48.44
15007;BME280;7599;50.748;13.142;2023-11-19T23:43:12;94929.56;;;16.97;48.65
15007;BME280;7599;50.748;13.142;2023-11-19T23:46:15;94924.16;;;17.00;48.52
15007;BME280;7599;50.748;13.142;2023-11-19T23:49:18;94920.28;;;16.98;49.03
15007;BME280;7599;50.748;13.142;2023-11-19T23:52:24;94916.38;;;16.95;48.94
15007;BME280;7599;50.748;13.142;2023-11-19T23:55:26;94926.44;;;16.91;48.91
15007;BME280;7599;50.748;13.142;2023-11-19T23:58:30;94910.56;;;16.90;49.00
